Terminal Aerodrome Forecast
Issued by NWS

Home | Current Version | Previous Version | Text Only | Print | Product List | Glossary Off
Versions: 1 2 3 4 5 6 7 8 9 10 11 12 13

000
FTUS43 KGRB 231720
TAFAUW
TAF
KAUW 231720Z 2318/2418 19014G26KT P6SM SCT250
     FM232300 18010G18KT P6SM BKN200
     FM240200 19006KT P6SM VCSH SCT040 BKN080
      TEMPO 2404/2408 3SM TSRA BKN040CB
     FM240800 18004KT 4SM BR VCSH BKN018
      TEMPO 2408/2412 3SM -SHRA BR BKN012
     FM241500 23008KT P6SM BKN025=

USA.gov is the U.S. government's official web portal to all federal, state and local government web resources and services.